createdAt,value
2017-04-16T00:00:23.836Z,0
2017-04-16T00:01:23.822Z,0
2017-04-16T00:02:23.204Z,0
2017-04-16T00:03:23.802Z,0
2017-04-16T00:04:23.498Z,0
2017-04-16T00:05:23.775Z,0
2017-04-16T00:06:23.764Z,0
2017-04-16T00:07:23.748Z,0
2017-04-16T00:08:23.739Z,0
2017-04-16T00:09:23.435Z,0
2017-04-16T00:10:23.410Z,0
2017-04-16T00:11:23.702Z,0
2017-04-16T00:12:23.689Z,0
2017-04-16T00:13:23.380Z,0
2017-04-16T00:14:23.672Z,0
2017-04-16T00:15:23.653Z,0
2017-04-16T00:16:23.643Z,0
2017-04-16T00:17:23.642Z,0
2017-04-16T00:18:23.616Z,0
2017-04-16T00:19:23.878Z,0
2017-04-16T00:20:23.593Z,0
2017-04-16T00:21:23.581Z,0
2017-04-16T00:22:23.605Z,0
2017-04-16T00:23:23.565Z,0
2017-04-16T00:24:23.585Z,0
2017-04-16T00:25:23.233Z,0
2017-04-16T00:26:23.523Z,0
2017-04-16T00:27:23.209Z,0
2017-04-16T00:28:23.501Z,0
2017-04-16T00:29:23.488Z,0
2017-04-16T00:30:23.476Z,0
2017-04-16T00:31:23.468Z,0
2017-04-16T00:32:23.452Z,0
2017-04-16T00:33:23.446Z,0
2017-04-16T00:34:23.431Z,0
2017-04-16T00:35:23.420Z,0
2017-04-16T00:36:23.103Z,0
2017-04-16T00:37:23.392Z,0
2017-04-16T00:38:23.380Z,0
2017-04-16T00:39:23.373Z,0
2017-04-16T00:40:23.048Z,0
2017-04-16T00:41:23.343Z,0
2017-04-16T00:42:23.334Z,0
2017-04-16T00:43:23.318Z,0
2017-04-16T00:44:23.010Z,0
2017-04-16T00:45:23.293Z,0
2017-04-16T00:46:23.292Z,0
2017-04-16T00:47:23.555Z,0
2017-04-16T00:48:23.259Z,0
2017-04-16T00:49:23.252Z,0
2017-04-16T00:50:23.233Z,0
2017-04-16T00:51:22.944Z,0
2017-04-16T00:52:23.211Z,0
2017-04-16T00:53:23.201Z,0
2017-04-16T00:54:23.186Z,0
2017-04-16T00:55:23.175Z,0
2017-04-16T00:56:23.158Z,0
2017-04-16T00:57:23.153Z,0
2017-04-16T00:58:23.148Z,0
2017-04-16T00:59:23.127Z,0
2017-04-16T01:00:23.114Z,0
2017-04-16T01:01:22.800Z,0
2017-04-16T01:02:23.096Z,0
2017-04-16T01:03:23.076Z,0
2017-04-16T01:04:22.760Z,0
2017-04-16T01:05:23.053Z,0
2017-04-16T01:06:23.038Z,0
2017-04-16T01:07:22.429Z,0
2017-04-16T01:08:23.025Z,0
2017-04-16T01:09:23.004Z,0
2017-04-16T01:10:22.993Z,0
2017-04-16T01:11:22.986Z,0
2017-04-16T01:12:22.666Z,0
2017-04-16T01:13:23.257Z,0
2017-04-16T01:14:22.942Z,0
2017-04-16T01:15:22.928Z,0
2017-04-16T01:16:22.616Z,0
2017-04-16T01:17:22.908Z,0
2017-04-16T01:18:22.589Z,0
2017-04-16T01:19:22.886Z,0
2017-04-16T01:20:22.870Z,0
2017-04-16T01:21:22.864Z,0
2017-04-16T01:22:22.540Z,0
2017-04-16T01:23:23.101Z,0
2017-04-16T01:24:22.822Z,0
2017-04-16T01:25:22.806Z,0
2017-04-16T01:26:22.797Z,0
2017-04-16T01:27:22.486Z,0
2017-04-16T01:28:22.773Z,0
2017-04-16T01:29:22.759Z,0
2017-04-16T01:30:22.748Z,0
2017-04-16T01:31:22.734Z,0
2017-04-16T01:32:22.719Z,0
2017-04-16T01:33:22.433Z,0
2017-04-16T01:34:22.699Z,0
2017-04-16T01:35:22.683Z,0
2017-04-16T01:36:22.672Z,0
2017-04-16T01:37:22.659Z,0
2017-04-16T01:38:22.351Z,0
2017-04-16T01:39:22.336Z,0
2017-04-16T01:40:22.624Z,0
2017-04-16T01:41:22.830Z,0
2017-04-16T01:42:22.602Z,0
2017-04-16T01:43:22.592Z,0
2017-04-16T01:44:22.578Z,0
2017-04-16T01:45:22.260Z,0
2017-04-16T01:46:22.248Z,0
2017-04-16T01:47:22.245Z,0
2017-04-16T01:48:22.225Z,0
2017-04-16T01:49:22.513Z,0
2017-04-16T01:50:22.200Z,0
2017-04-16T01:51:22.492Z,0
2017-04-16T01:52:22.481Z,0
2017-04-16T01:53:22.166Z,0
2017-04-16T01:54:22.455Z,0
2017-04-16T01:55:22.141Z,0
2017-04-16T01:56:22.123Z,0
2017-04-16T01:57:22.111Z,0
2017-04-16T01:58:22.404Z,0
2017-04-16T01:59:22.403Z,0
2017-04-16T02:00:22.378Z,0
2017-04-16T02:01:22.366Z,0
2017-04-16T02:02:22.358Z,0
2017-04-16T02:03:22.345Z,0
2017-04-16T02:04:22.026Z,0
2017-04-16T02:05:22.312Z,0
2017-04-16T02:06:22.301Z,0
2017-04-16T02:07:22.291Z,0
2017-04-16T02:08:22.283Z,0
2017-04-16T02:09:22.093Z,0
2017-04-16T02:10:22.252Z,0
2017-04-16T02:11:22.240Z,0
2017-04-16T02:12:22.228Z,0
2017-04-16T02:13:22.220Z,0
2017-04-16T02:14:22.202Z,0
2017-04-16T02:15:21.887Z,0
2017-04-16T02:16:22.186Z,0
2017-04-16T02:17:22.168Z,0
2017-04-16T02:18:22.157Z,0
2017-04-16T02:19:22.142Z,0
2017-04-16T02:20:22.128Z,0
2017-04-16T02:21:22.153Z,0
2017-04-16T02:22:21.808Z,0
2017-04-16T02:23:21.792Z,0
2017-04-16T02:24:22.084Z,0
2017-04-16T02:25:22.069Z,0
2017-04-16T02:26:22.061Z,0
2017-04-16T02:27:22.111Z,0
2017-04-16T02:28:22.036Z,0
2017-04-16T02:29:22.022Z,0
2017-04-16T02:30:22.036Z,0
2017-04-16T02:31:21.992Z,0
2017-04-16T02:32:21.989Z,0
2017-04-16T02:33:21.670Z,0
2017-04-16T02:34:21.961Z,0
2017-04-16T02:35:21.947Z,0
2017-04-16T02:36:21.977Z,0
2017-04-16T02:37:21.920Z,0
2017-04-16T02:38:21.914Z,0
2017-04-16T02:39:21.913Z,0
2017-04-16T02:40:21.583Z,0
2017-04-16T02:41:21.871Z,0
2017-04-16T02:42:21.610Z,0
2017-04-16T02:43:21.851Z,0
2017-04-16T02:44:21.839Z,0
2017-04-16T02:45:22.032Z,0
2017-04-16T02:46:21.817Z,0
2017-04-16T02:47:22.143Z,0
2017-04-16T02:48:21.487Z,0
2017-04-16T02:49:21.783Z,0
2017-04-16T02:50:21.775Z,0
2017-04-16T02:51:21.450Z,0
2017-04-16T02:52:21.737Z,0
2017-04-16T02:53:21.730Z,0
2017-04-16T02:54:21.712Z,0
2017-04-16T02:55:21.700Z,0
2017-04-16T02:56:21.685Z,0
2017-04-16T02:57:21.675Z,0
2017-04-16T02:58:21.703Z,0
2017-04-16T02:59:21.657Z,0
2017-04-16T03:00:21.639Z,0
2017-04-16T03:01:21.631Z,0
2017-04-16T03:02:21.663Z,0
2017-04-16T03:03:21.599Z,0
2017-04-16T03:04:21.587Z,0
2017-04-16T03:05:21.274Z,0
2017-04-16T03:06:21.561Z,0
2017-04-16T03:07:21.549Z,0
2017-04-16T03:08:21.540Z,0
2017-04-16T03:09:21.525Z,0
2017-04-16T03:10:21.514Z,0
2017-04-16T03:11:21.498Z,0
2017-04-16T03:12:21.495Z,0
2017-04-16T03:13:21.176Z,0
2017-04-16T03:14:21.475Z,0
2017-04-16T03:15:21.152Z,0
2017-04-16T03:16:21.439Z,0
2017-04-16T03:17:21.429Z,0
2017-04-16T03:18:21.417Z,0
2017-04-16T03:19:21.436Z,0
2017-04-16T03:20:21.091Z,0
2017-04-16T03:21:21.379Z,0
2017-04-16T03:22:21.374Z,0
2017-04-16T03:23:21.355Z,0
2017-04-16T03:24:21.341Z,0
2017-04-16T03:25:21.330Z,0
2017-04-16T03:26:21.319Z,0
2017-04-16T03:27:21.338Z,0
2017-04-16T03:28:21.289Z,0
2017-04-16T03:29:21.285Z,0
2017-04-16T03:30:21.266Z,0
2017-04-16T03:31:21.255Z,0
2017-04-16T03:32:21.247Z,0
2017-04-16T03:33:20.938Z,0
2017-04-16T03:34:21.231Z,0
2017-04-16T03:35:21.205Z,0
2017-04-16T03:36:21.199Z,0
2017-04-16T03:37:21.246Z,0
2017-04-16T03:38:21.171Z,0
2017-04-16T03:39:21.158Z,0
2017-04-16T03:40:21.143Z,0
2017-04-16T03:41:21.135Z,0
2017-04-16T03:42:21.120Z,0
2017-04-16T03:43:20.806Z,0
2017-04-16T03:44:21.107Z,0
2017-04-16T03:45:20.788Z,0
2017-04-16T03:46:21.077Z,0
2017-04-16T03:47:20.755Z,0
2017-04-16T03:48:20.744Z,0
2017-04-16T03:49:21.041Z,0
2017-04-16T03:50:21.025Z,0
2017-04-16T03:51:21.015Z,0
2017-04-16T03:52:21.001Z,0
2017-04-16T03:53:20.690Z,0
2017-04-16T03:54:21.080Z,0
2017-04-16T03:55:21.246Z,0
2017-04-16T03:56:20.948Z,0
2017-04-16T03:57:20.938Z,0
2017-04-16T03:58:20.926Z,5
2017-04-16T03:59:20.915Z,5
2017-04-16T04:00:20.901Z,0
2017-04-16T04:01:20.892Z,0
2017-04-16T04:02:20.877Z,5
2017-04-16T04:03:20.954Z,5
2017-04-16T04:04:20.863Z,5
2017-04-16T04:05:20.846Z,5
2017-04-16T04:06:20.525Z,10
2017-04-16T04:07:20.542Z,10
2017-04-16T04:08:20.805Z,10
2017-04-16T04:09:20.797Z,10
2017-04-16T04:10:20.783Z,15
2017-04-16T04:11:20.770Z,10
2017-04-16T04:12:20.758Z,10
2017-04-16T04:13:20.747Z,10
2017-04-16T04:14:20.736Z,10
2017-04-16T04:15:20.728Z,10
2017-04-16T04:16:20.710Z,10
2017-04-16T04:17:20.705Z,5
2017-04-16T04:18:20.385Z,5
2017-04-16T04:19:20.682Z,10
2017-04-16T04:20:20.667Z,10
2017-04-16T04:21:20.683Z,10
2017-04-16T04:22:20.645Z,10
2017-04-16T04:23:20.636Z,10
2017-04-16T04:24:20.626Z,10
2017-04-16T04:25:20.603Z,15
2017-04-16T04:26:20.596Z,20
2017-04-16T04:27:20.581Z,25
2017-04-16T04:28:20.575Z,30
2017-04-16T04:29:20.568Z,30
2017-04-16T04:30:20.549Z,35
2017-04-16T04:31:20.535Z,40
2017-04-16T04:32:20.527Z,45
2017-04-16T04:33:20.520Z,45
2017-04-16T04:34:20.505Z,50
2017-04-16T04:35:20.188Z,55
2017-04-16T04:36:20.480Z,65
2017-04-16T04:37:20.169Z,60
2017-04-16T04:38:20.461Z,60
2017-04-16T04:39:20.450Z,65
2017-04-16T04:40:20.432Z,75
2017-04-16T04:41:20.424Z,80
2017-04-16T04:42:20.415Z,85
2017-04-16T04:43:20.402Z,90
2017-04-16T04:44:20.090Z,90
2017-04-16T04:45:20.075Z,90
2017-04-16T04:46:20.369Z,90
2017-04-16T04:47:20.359Z,85
2017-04-16T04:48:20.351Z,75
2017-04-16T04:49:20.336Z,65
2017-04-16T04:50:20.020Z,60
2017-04-16T04:51:20.321Z,55
2017-04-16T04:52:20.309Z,55
2017-04-16T04:53:20.291Z,55
2017-04-16T04:54:19.677Z,60
2017-04-16T04:55:19.969Z,55
2017-04-16T04:56:20.261Z,50
2017-04-16T04:57:20.248Z,55
2017-04-16T04:58:19.940Z,45
2017-04-16T04:59:20.235Z,35
2017-04-16T05:00:20.225Z,35
2017-04-16T05:01:19.912Z,35
2017-04-16T05:02:19.904Z,35
2017-04-16T05:03:20.188Z,40
2017-04-16T05:04:20.179Z,45
2017-04-16T05:05:19.861Z,45
2017-04-16T05:06:20.152Z,50
2017-04-16T05:07:20.147Z,55
2017-04-16T05:08:19.533Z,65
2017-04-16T05:09:20.123Z,100
2017-04-16T05:10:20.111Z,130
2017-04-16T05:11:20.106Z,115
2017-04-16T05:12:20.096Z,110
2017-04-16T05:13:20.085Z,95
2017-04-16T05:14:19.777Z,100
2017-04-16T05:15:20.065Z,115
2017-04-16T05:16:20.053Z,125
2017-04-16T05:17:20.048Z,130
2017-04-16T05:18:19.424Z,115
2017-04-16T05:19:20.019Z,105
2017-04-16T05:20:20.009Z,105
2017-04-16T05:21:20.002Z,105
2017-04-16T05:22:19.987Z,95
2017-04-16T05:23:19.980Z,100
2017-04-16T05:24:20.236Z,90
2017-04-16T05:25:19.655Z,85
2017-04-16T05:26:19.341Z,75
2017-04-16T05:27:19.632Z,65
2017-04-16T05:28:19.932Z,75
2017-04-16T05:29:19.928Z,100
2017-04-16T05:30:19.398Z,95
2017-04-16T05:31:19.906Z,85
2017-04-16T05:32:19.914Z,85
2017-04-16T05:33:19.880Z,85
2017-04-16T05:34:19.570Z,75
2017-04-16T05:35:19.560Z,70
2017-04-16T05:36:19.845Z,60
2017-04-16T05:37:19.538Z,55
2017-04-16T05:38:19.828Z,55
2017-04-16T05:39:20.206Z,60
2017-04-16T05:40:19.809Z,65
2017-04-16T05:41:19.499Z,70
2017-04-16T05:42:19.486Z,85
2017-04-16T05:43:19.779Z,95
2017-04-16T05:44:19.777Z,115
2017-04-16T05:45:19.766Z,125
2017-04-16T05:46:19.750Z,150
2017-04-16T05:47:19.803Z,125
2017-04-16T05:48:19.656Z,120
2017-04-16T05:49:19.728Z,90
2017-04-16T05:50:19.711Z,100
2017-04-16T05:51:19.709Z,95
2017-04-16T05:52:19.691Z,75
2017-04-16T05:53:19.377Z,85
2017-04-16T05:54:19.675Z,85
2017-04-16T05:55:19.056Z,90
2017-04-16T05:56:19.437Z,110
2017-04-16T05:57:19.342Z,130
2017-04-16T05:58:19.644Z,120
2017-04-16T05:59:19.328Z,130
2017-04-16T06:00:19.615Z,145
2017-04-16T06:01:19.301Z,150
2017-04-16T06:02:19.592Z,185
2017-04-16T06:03:19.284Z,190
2017-04-16T06:04:19.277Z,185
2017-04-16T06:05:19.804Z,190
2017-04-16T06:06:19.253Z,195
2017-04-16T06:07:19.546Z,205
2017-04-16T06:08:19.551Z,185
2017-04-16T06:09:19.235Z,135
2017-04-16T06:10:19.217Z,130
2017-04-16T06:11:19.510Z,130
2017-04-16T06:12:19.507Z,105
2017-04-16T06:13:19.497Z,85
2017-04-16T06:14:19.176Z,90
2017-04-16T06:15:19.470Z,105
2017-04-16T06:16:19.463Z,120
2017-04-16T06:17:19.451Z,150
2017-04-16T06:18:19.146Z,220
2017-04-16T06:19:19.433Z,245
2017-04-16T06:20:19.119Z,235
2017-04-16T06:21:51.216Z,175
2017-04-16T06:22:19.405Z,145
2017-04-16T06:23:19.401Z,140
2017-04-16T06:24:19.090Z,160
2017-04-16T06:25:19.380Z,135
2017-04-16T06:26:19.371Z,115
2017-04-16T06:27:19.058Z,105
2017-04-16T06:28:19.351Z,140
2017-04-16T06:29:19.496Z,210
2017-04-16T06:30:19.335Z,230
2017-04-16T06:31:19.322Z,175
2017-04-16T06:32:19.318Z,120
2017-04-16T06:33:19.307Z,80
2017-04-16T06:34:19.302Z,70
2017-04-16T06:35:19.292Z,90
2017-04-16T06:36:19.284Z,150
2017-04-16T06:37:19.439Z,205
2017-04-16T06:38:19.270Z,255
2017-04-16T06:39:19.257Z,315
2017-04-16T06:40:18.942Z,360
2017-04-16T06:41:19.236Z,395
2017-04-16T06:42:19.232Z,1165
2017-04-16T06:43:19.224Z,315
2017-04-16T06:44:18.911Z,315
2017-04-16T06:45:19.249Z,305
2017-04-16T06:46:19.191Z,380
2017-04-16T06:47:19.185Z,360
2017-04-16T06:48:19.176Z,265
2017-04-16T06:49:19.169Z,220
2017-04-16T06:50:19.165Z,270
2017-04-16T06:51:18.851Z,305
2017-04-16T06:52:19.143Z,295
2017-04-16T06:53:19.135Z,240
2017-04-16T06:54:19.122Z,205
2017-04-16T06:55:19.118Z,195
2017-04-16T06:56:19.150Z,195
2017-04-16T06:57:19.105Z,215
2017-04-16T06:58:19.095Z,205
2017-04-16T06:59:19.092Z,265
2017-04-16T07:00:18.773Z,330
2017-04-16T07:01:19.074Z,365
2017-04-16T07:02:19.197Z,415
2017-04-16T07:03:18.449Z,385
2017-04-16T07:04:19.080Z,400
2017-04-16T07:05:19.040Z,430
2017-04-16T07:06:19.031Z,555
2017-04-16T07:07:19.021Z,755
2017-04-16T07:08:19.017Z,920
2017-04-16T07:09:19.006Z,1030
2017-04-16T07:10:19.016Z,665
2017-04-16T07:11:18.992Z,980
2017-04-16T07:12:19.009Z,1300
2017-04-16T07:13:18.979Z,725
2017-04-16T07:14:18.975Z,450
2017-04-16T07:15:18.966Z,310
2017-04-16T07:16:18.962Z,245
2017-04-16T07:17:18.951Z,200
2017-04-16T07:18:18.706Z,155
2017-04-16T07:19:18.949Z,180
2017-04-16T07:20:18.932Z,245
2017-04-16T07:21:18.935Z,250
2017-04-16T07:22:18.920Z,215
2017-04-16T07:23:19.280Z,250
2017-04-16T07:24:18.915Z,290
2017-04-16T07:25:18.904Z,290
2017-04-16T07:26:18.595Z,300
2017-04-16T07:27:18.585Z,365
2017-04-16T07:28:18.593Z,485
2017-04-16T07:29:18.885Z,660
2017-04-16T07:30:18.872Z,1445
2017-04-16T07:31:18.865Z,860
2017-04-16T07:32:18.859Z,825
2017-04-16T07:33:18.548Z,2545
2017-04-16T07:34:18.843Z,2710
2017-04-16T07:35:18.905Z,780
2017-04-16T07:36:18.867Z,850
2017-04-16T07:37:18.830Z,2680
2017-04-16T07:38:18.521Z,970
2017-04-16T07:39:18.821Z,1720
2017-04-16T07:40:18.814Z,1075
2017-04-16T07:41:18.810Z,2465
2017-04-16T07:42:18.804Z,2440
2017-04-16T07:43:18.870Z,2015
2017-04-16T07:44:18.582Z,945
2017-04-16T07:45:18.796Z,895
2017-04-16T07:46:18.799Z,690
2017-04-16T07:47:18.791Z,685
2017-04-16T07:48:18.793Z,590
2017-04-16T07:49:18.795Z,295
2017-04-16T07:50:18.790Z,370
2017-04-16T07:51:18.483Z,365
2017-04-16T07:52:18.523Z,275
2017-04-16T07:53:18.784Z,180
2017-04-16T07:54:18.790Z,200
2017-04-16T07:55:18.775Z,240
2017-04-16T07:56:18.777Z,255
2017-04-16T07:57:18.780Z,300
2017-04-16T07:58:18.782Z,300
2017-04-16T07:59:18.772Z,400
2017-04-16T08:00:18.873Z,485
2017-04-16T08:01:18.457Z,500
2017-04-16T08:02:18.457Z,540
2017-04-16T08:03:18.761Z,425
2017-04-16T08:04:18.753Z,540
2017-04-16T08:05:18.751Z,740
2017-04-16T08:06:18.744Z,750
2017-04-16T08:07:18.739Z,1170
2017-04-16T08:08:18.742Z,420
2017-04-16T08:09:18.731Z,285
2017-04-16T08:10:18.726Z,175
2017-04-16T08:11:18.721Z,135
2017-04-16T08:12:18.739Z,105
2017-04-16T08:13:18.718Z,80
2017-04-16T08:14:18.717Z,75
2017-04-16T08:15:18.401Z,75
2017-04-16T08:16:18.699Z,65
2017-04-16T08:17:18.699Z,65
2017-04-16T08:18:18.383Z,80
2017-04-16T08:19:18.381Z,125
2017-04-16T08:20:18.380Z,145
2017-04-16T08:21:18.668Z,205
2017-04-16T08:22:18.666Z,330
2017-04-16T08:23:18.660Z,460
2017-04-16T08:24:21.083Z,575
2017-04-16T08:25:18.677Z,660
2017-04-16T08:26:18.340Z,740
2017-04-16T08:27:18.632Z,740
2017-04-16T08:28:18.028Z,520
2017-04-16T08:29:18.627Z,330
2017-04-16T08:30:18.615Z,255
2017-04-16T08:31:18.608Z,290
2017-04-16T08:32:18.606Z,380
2017-04-16T08:33:18.896Z,505
2017-04-16T08:34:18.675Z,490
2017-04-16T08:35:18.588Z,510
2017-04-16T08:36:18.575Z,590
2017-04-16T08:37:18.570Z,675
2017-04-16T08:38:18.564Z,490
2017-04-16T08:39:18.553Z,355
2017-04-16T08:40:18.548Z,385
2017-04-16T08:41:18.548Z,425
2017-04-16T08:42:18.385Z,420
2017-04-16T08:43:18.526Z,455
2017-04-16T08:44:18.519Z,485
2017-04-16T08:45:18.515Z,435
2017-04-16T08:46:18.506Z,385
2017-04-16T08:47:18.503Z,350
2017-04-16T08:48:18.496Z,310
2017-04-16T08:49:18.489Z,285
2017-04-16T08:50:18.484Z,275
2017-04-16T08:51:18.171Z,275
2017-04-16T08:52:18.174Z,275
2017-04-16T08:53:18.475Z,275
2017-04-16T08:54:18.460Z,280
2017-04-16T08:55:18.448Z,295
2017-04-16T08:56:18.442Z,325
2017-04-16T08:57:18.438Z,385
2017-04-16T08:58:18.153Z,475
2017-04-16T08:59:18.428Z,555
2017-04-16T09:00:18.412Z,705
2017-04-16T09:01:18.406Z,625
2017-04-16T09:02:18.096Z,475
2017-04-16T09:03:18.396Z,455
2017-04-16T09:04:18.387Z,530
2017-04-16T09:05:18.381Z,605
2017-04-16T09:06:18.075Z,605
2017-04-16T09:07:18.367Z,600
2017-04-16T09:08:18.370Z,560
2017-04-16T09:09:18.354Z,525
2017-04-16T09:10:18.346Z,535
2017-04-16T09:11:18.346Z,550
2017-04-16T09:12:18.343Z,600
2017-04-16T09:13:18.332Z,615
2017-04-16T09:14:18.323Z,650
2017-04-16T09:15:18.017Z,665
2017-04-16T09:16:18.443Z,645
2017-04-16T09:17:18.311Z,625
2017-04-16T09:18:18.318Z,585
2017-04-16T09:19:18.307Z,525
2017-04-16T09:20:18.293Z,475
2017-04-16T09:21:18.291Z,465
2017-04-16T09:22:18.297Z,480
2017-04-16T09:23:18.277Z,540
2017-04-16T09:24:17.975Z,540
2017-04-16T09:25:18.268Z,525
2017-04-16T09:26:17.969Z,575
2017-04-16T09:27:18.260Z,550
2017-04-16T09:28:18.251Z,465
2017-04-16T09:29:18.259Z,420
2017-04-16T09:30:18.245Z,480
2017-04-16T09:31:18.236Z,535
2017-04-16T09:32:18.232Z,520
2017-04-16T09:33:18.273Z,565
2017-04-16T09:34:17.930Z,670
2017-04-16T09:35:18.225Z,710
2017-04-16T09:36:18.219Z,685
2017-04-16T09:37:18.219Z,620
2017-04-16T09:38:18.210Z,515
2017-04-16T09:39:18.212Z,425
2017-04-16T09:40:18.218Z,365
2017-04-16T09:41:18.205Z,330
2017-04-16T09:42:17.893Z,305
2017-04-16T09:43:18.193Z,285
2017-04-16T09:44:18.188Z,275
2017-04-16T09:45:18.180Z,265
2017-04-16T09:46:17.873Z,265
2017-04-16T09:47:18.185Z,260
2017-04-16T09:48:18.517Z,255
2017-04-16T09:49:18.162Z,210
2017-04-16T09:50:18.228Z,160
2017-04-16T09:51:18.150Z,130
2017-04-16T09:52:18.148Z,145
2017-04-16T09:53:17.542Z,185
2017-04-16T09:54:18.140Z,210
2017-04-16T09:55:18.134Z,180
2017-04-16T09:56:18.127Z,150
2017-04-16T09:57:18.122Z,125
2017-04-16T09:58:18.120Z,110
2017-04-16T09:59:17.813Z,115
2017-04-16T10:00:18.130Z,145
2017-04-16T10:01:17.799Z,195
2017-04-16T10:02:17.187Z,255
2017-04-16T10:03:18.088Z,320
2017-04-16T10:04:17.782Z,380
2017-04-16T10:05:18.072Z,430
2017-04-16T10:06:17.466Z,470
2017-04-16T10:07:18.157Z,485
2017-04-16T10:08:17.754Z,480
2017-04-16T10:09:18.088Z,470
2017-04-16T10:10:18.050Z,480
2017-04-16T10:11:18.034Z,470
2017-04-16T10:12:18.031Z,455
2017-04-16T10:13:17.721Z,445
2017-04-16T10:14:18.020Z,445
2017-04-16T10:15:17.771Z,440
2017-04-16T10:16:17.700Z,420
2017-04-16T10:17:17.389Z,420
2017-04-16T10:18:17.684Z,415
2017-04-16T10:19:17.984Z,405
2017-04-16T10:20:17.981Z,400
2017-04-16T10:21:17.977Z,400
2017-04-16T10:22:17.960Z,405
2017-04-16T10:23:17.966Z,400
2017-04-16T10:24:17.898Z,390
2017-04-16T10:25:17.947Z,380
2017-04-16T10:26:17.937Z,375
2017-04-16T10:27:17.937Z,355
2017-04-16T10:28:17.925Z,340
2017-04-16T10:29:17.924Z,325
2017-04-16T10:30:17.610Z,310
2017-04-16T10:31:17.903Z,300
2017-04-16T10:32:17.309Z,295
2017-04-16T10:33:17.642Z,310
2017-04-16T10:34:17.908Z,310
2017-04-16T10:35:17.879Z,310
2017-04-16T10:36:17.871Z,320
2017-04-16T10:37:17.561Z,315
2017-04-16T10:38:17.860Z,355
2017-04-16T10:39:17.854Z,380
2017-04-16T10:40:17.847Z,440
2017-04-16T10:41:17.999Z,490
2017-04-16T10:42:17.783Z,495
2017-04-16T10:43:17.828Z,460
2017-04-16T10:44:17.834Z,440
2017-04-16T10:45:17.513Z,445
2017-04-16T10:46:17.804Z,495
2017-04-16T10:47:17.810Z,535
2017-04-16T10:48:17.796Z,575
2017-04-16T10:49:17.790Z,615
2017-04-16T10:50:17.781Z,650
2017-04-16T10:51:17.747Z,640
2017-04-16T10:52:17.781Z,640
2017-04-16T10:53:17.765Z,660
2017-04-16T10:54:17.454Z,690
2017-04-16T10:55:17.451Z,695
2017-04-16T10:56:17.443Z,695
2017-04-16T10:57:17.742Z,695
2017-04-16T10:58:17.438Z,685
2017-04-16T10:59:17.731Z,665
2017-04-16T11:00:18.162Z,615
2017-04-16T11:01:17.725Z,575
2017-04-16T11:02:17.414Z,540
2017-04-16T11:03:17.411Z,520
2017-04-16T11:04:17.407Z,500
2017-04-16T11:05:17.707Z,485
2017-04-16T11:06:17.704Z,490
2017-04-16T11:07:17.394Z,505
2017-04-16T11:08:17.393Z,555
2017-04-16T11:09:17.578Z,605
2017-04-16T11:10:17.383Z,600
2017-04-16T11:11:17.679Z,625
2017-04-16T11:12:17.678Z,710
2017-04-16T11:13:17.370Z,780
2017-04-16T11:14:17.673Z,765
2017-04-16T11:15:17.665Z,680
2017-04-16T11:16:17.685Z,610
2017-04-16T11:17:17.734Z,550
2017-04-16T11:18:17.655Z,540
2017-04-16T11:19:17.678Z,485
2017-04-16T11:20:17.642Z,405
2017-04-16T11:21:17.639Z,335
2017-04-16T11:22:17.639Z,285
2017-04-16T11:23:17.636Z,235
2017-04-16T11:24:17.635Z,190
2017-04-16T11:25:17.632Z,175
2017-04-16T11:26:18.044Z,170
2017-04-16T11:27:17.618Z,180
2017-04-16T11:28:17.624Z,215
2017-04-16T11:29:17.624Z,190
2017-04-16T11:30:17.307Z,145
2017-04-16T11:31:17.600Z,125
2017-04-16T11:32:17.603Z,110
2017-04-16T11:33:17.286Z,110
2017-04-16T11:34:17.589Z,105
2017-04-16T11:35:17.840Z,105
2017-04-16T11:36:17.576Z,120
2017-04-16T11:37:17.571Z,150
2017-04-16T11:38:17.261Z,180
2017-04-16T11:39:17.561Z,240
2017-04-16T11:40:17.549Z,320
2017-04-16T11:41:17.540Z,395
2017-04-16T11:42:17.541Z,455
2017-04-16T11:43:17.531Z,535
2017-04-16T11:44:17.526Z,610
2017-04-16T11:45:17.510Z,650
2017-04-16T11:46:17.504Z,655
2017-04-16T11:47:17.194Z,640
2017-04-16T11:48:17.498Z,635
2017-04-16T11:49:17.483Z,680
2017-04-16T11:50:17.165Z,705
2017-04-16T11:51:17.463Z,735
2017-04-16T11:52:17.606Z,750
2017-04-16T11:53:17.448Z,750
2017-04-16T11:54:17.449Z,750
2017-04-16T11:55:17.434Z,750
2017-04-16T11:56:17.427Z,735
2017-04-16T11:57:17.433Z,685
2017-04-16T11:58:17.116Z,620
2017-04-16T11:59:17.410Z,580
2017-04-16T12:00:17.502Z,585
2017-04-16T12:01:17.583Z,610
2017-04-16T12:02:17.386Z,600
2017-04-16T12:03:17.377Z,545
2017-04-16T12:04:17.372Z,480
2017-04-16T12:05:17.366Z,425
2017-04-16T12:06:17.050Z,380
2017-04-16T12:07:17.047Z,395
2017-04-16T12:08:17.039Z,465
2017-04-16T12:09:17.341Z,560
2017-04-16T12:10:17.039Z,635
2017-04-16T12:11:17.275Z,670
2017-04-16T12:12:17.316Z,670
2017-04-16T12:13:17.313Z,670
2017-04-16T12:14:17.305Z,690
2017-04-16T12:15:17.296Z,705
2017-04-16T12:16:16.992Z,670
2017-04-16T12:17:17.373Z,600
2017-04-16T12:18:17.327Z,530
2017-04-16T12:19:17.286Z,480
2017-04-16T12:20:17.269Z,425
2017-04-16T12:21:17.265Z,350
2017-04-16T12:22:17.255Z,310
2017-04-16T12:23:17.262Z,305
2017-04-16T12:24:17.245Z,315
2017-04-16T12:25:17.248Z,355
2017-04-16T12:26:16.932Z,375
2017-04-16T12:27:17.239Z,375
2017-04-16T12:28:17.230Z,360
2017-04-16T12:29:17.225Z,390
2017-04-16T12:30:17.212Z,450
2017-04-16T12:31:17.209Z,520
2017-04-16T12:32:17.205Z,570
2017-04-16T12:33:17.197Z,575
2017-04-16T12:34:17.191Z,595
2017-04-16T12:35:17.468Z,590
2017-04-16T12:36:17.103Z,550
2017-04-16T12:37:17.177Z,505
2017-04-16T12:38:16.866Z,485
2017-04-16T12:39:17.165Z,490
2017-04-16T12:40:16.857Z,520
2017-04-16T12:41:17.157Z,550
2017-04-16T12:42:17.163Z,575
2017-04-16T12:43:17.142Z,550
2017-04-16T12:44:16.835Z,490
2017-04-16T12:45:17.133Z,430
2017-04-16T12:46:16.825Z,405
2017-04-16T12:47:17.123Z,435
2017-04-16T12:48:17.118Z,490
2017-04-16T12:49:17.118Z,510
2017-04-16T12:50:17.104Z,505
2017-04-16T12:51:17.132Z,505
2017-04-16T12:52:16.641Z,485
2017-04-16T12:53:17.085Z,445
2017-04-16T12:54:17.086Z,385
2017-04-16T12:55:17.075Z,320
2017-04-16T12:56:16.773Z,250
2017-04-16T12:57:16.761Z,195
2017-04-16T12:58:17.060Z,160
2017-04-16T12:59:17.061Z,145
2017-04-16T13:00:17.048Z,135
2017-04-16T13:01:17.168Z,130
2017-04-16T13:02:17.039Z,130
2017-04-16T13:03:17.041Z,130
2017-04-16T13:04:16.745Z,125
2017-04-16T13:05:17.015Z,115
2017-04-16T13:06:17.008Z,105
2017-04-16T13:07:17.003Z,95
2017-04-16T13:08:16.694Z,90
2017-04-16T13:09:17.042Z,85
2017-04-16T13:10:17.011Z,85
2017-04-16T13:11:16.970Z,80
2017-04-16T13:12:16.656Z,90
2017-04-16T13:13:16.951Z,100
2017-04-16T13:14:16.946Z,125
2017-04-16T13:15:16.937Z,180
2017-04-16T13:16:16.922Z,240
2017-04-16T13:17:16.915Z,305
2017-04-16T13:18:16.909Z,370
2017-04-16T13:19:16.898Z,435
2017-04-16T13:20:16.891Z,495
2017-04-16T13:21:16.575Z,545
2017-04-16T13:22:16.570Z,625
2017-04-16T13:23:16.859Z,680
2017-04-16T13:24:16.860Z,685
2017-04-16T13:25:16.237Z,655
2017-04-16T13:26:16.553Z,640
2017-04-16T13:27:17.282Z,625
2017-04-16T13:28:16.814Z,615
2017-04-16T13:29:16.806Z,580
2017-04-16T13:30:16.795Z,560
2017-04-16T13:31:16.784Z,550
2017-04-16T13:32:16.777Z,530
2017-04-16T13:33:16.772Z,480
2017-04-16T13:34:16.765Z,440
2017-04-16T13:35:16.763Z,415
2017-04-16T13:36:16.440Z,415
2017-04-16T13:37:16.739Z,425
2017-04-16T13:38:16.731Z,445
2017-04-16T13:39:16.725Z,460
2017-04-16T13:40:16.720Z,455
2017-04-16T13:41:16.701Z,450
2017-04-16T13:42:16.697Z,435
2017-04-16T13:43:16.689Z,425
2017-04-16T13:44:16.377Z,420
2017-04-16T13:45:16.369Z,410
2017-04-16T13:46:16.359Z,385
2017-04-16T13:47:16.660Z,370
2017-04-16T13:48:16.651Z,360
2017-04-16T13:49:16.649Z,355
2017-04-16T13:50:16.631Z,360
2017-04-16T13:51:16.624Z,355
2017-04-16T13:52:16.321Z,360
2017-04-16T13:53:16.734Z,360
2017-04-16T13:54:16.298Z,340
2017-04-16T13:55:16.593Z,335
2017-04-16T13:56:16.587Z,310
2017-04-16T13:57:16.576Z,285
2017-04-16T13:58:16.581Z,275
2017-04-16T13:59:16.263Z,270
2017-04-16T14:00:16.559Z,270
2017-04-16T14:01:16.242Z,290
2017-04-16T14:02:16.545Z,320
2017-04-16T14:03:16.569Z,320
2017-04-16T14:04:16.527Z,295
2017-04-16T14:05:16.518Z,290
2017-04-16T14:06:16.513Z,300